SAMM/LGS METAR and TAF weather

Enter ICAO airport designator
Station Type Date Time Source
SAMM METAR 2019/11/15 15:30 UTC NOAA

SAMM 151530Z 18014G32KT CAVOK 28/00 Q1016


Station Type Date Time Source
SAMM Decoded METAR 2019/11/15 15:30 UTC NOAA

Malargue Aerodrome, Argentina (SAMM) 35-30S 069-35W 1425M
Nov 15, 2019 - 10:30 AM EST / 2019.11.15 1530 UTC
Wind: from the S (180 degrees) at 16 MPH (14 KT) gusting to 37 MPH (32 KT):0
Visibility: greater than 7 mile(s):0
Temperature: 82 F (28 C)
Dew Point: 32 F (0 C)
Relative Humidity: 16%
Pressure (altimeter): 30.00 in. Hg (1016 hPa)
ob: SAMM 151530Z 18014G32KT CAVOK 28/00 Q1016
cycle: 15

Station Type Date Time Source
SAMM TAF UTC NOAA

Error!

Example: see airport list